Glens Falls, NY

4:13 AM EDT on April 01, 2015 (GMT -0400)
The White House | | Change Station
CLOSE
Current Station
Personal Weather Station
Location: South Glens Falls, NY
Elevation: 344 ft
Nearby Weather Stations

Elev 344 ft 43.27 °N, 73.65 °W | Updated 38 seconds ago

Clear
Clear
21.0 °F
Feels Like 21 °F
N
0.0
Wind Variable Wind from ESE
Gusts 0.0 mph

Today
High -- | Low -- °F
--% Chance of Precip.
Yesterday
High -- | Low -- °F
Precip. -- in
6:36 AM 7:20 PM
Waxing Gibbous, 91% visible
Pressure 29.94 in
Visibility 10.0 miles
Clouds Clear
Windchill 21 °F
Dew Point 11 °F
Humidity 69%
Rainfall in
Snow Depth Not available.
UV 0 out of 12
Pollen 4.90 out of 12
Air Quality Not available.
Flu Activity Not available.
METAR KGFL 010753Z AUTO 00000KT 10SM CLR M06/M12 A2992 RMK AO2 SLP139 T10561117

More Conditions Fewer Conditions

Pressure 29.94 in
Visibility 10.0 miles
Clouds Clear
Windchill 21 °F
Dew Point 11 °F
Humidity 69%
Rainfall in
Snow Depth Not available.
UV 0 out of 12
Pollen 4.90 out of 12
Air Quality Not available.
Flu Activity Not available.
METAR KGFL 010753Z AUTO 00000KT 10SM CLR M06/M12 A2992 RMK AO2 SLP139 T10561117

More Conditions Fewer Conditions

10-Day Weather Forecast

Almanac

Astronomy

Apr. 01, 2015 Rise Set
Actual Time
Civil Twilight
Nautical Twilight
Astronomical Twilight
Moon
Length of Visible Light
Length of Day
Tomorrow will be .
, % of the Moon is Illuminated

Today's Extremes

State Highs State Lows

Community

WunderPhotos

Upload Photos

1,809,932 photos uploaded!

WunderBlogs® & News

Nearby

Air Quality

  Air Quality AQ Index Pollutant
Not available.

Snow Depth

Station Depth Elevation

Earthquake Activity

City Distance Mag. Time & Date
Minimum magnitude displayed is 2.5.

Coastal Water Temperatures

Place Temperature

Stations

Nearby Weather Stations

Station Location Temp. Windchill Dew Point Humidity Wind Precip. Elev Updated Type